createdAt,value
2023-01-23T00:00:02.138Z,81.13
2023-01-23T00:02:40.899Z,81.52
2023-01-23T00:05:09.961Z,81.40
2023-01-23T00:07:37.551Z,81.22
2023-01-23T00:10:06.065Z,80.97
2023-01-23T00:12:33.810Z,81.23
2023-01-23T00:15:01.399Z,81.07
2023-01-23T00:17:30.106Z,81.19
2023-01-23T00:19:59.562Z,81.03
2023-01-23T00:22:27.574Z,81.46
2023-01-23T00:24:55.143Z,82.01
2023-01-23T00:27:23.130Z,81.71
2023-01-23T00:29:53.281Z,82.58
2023-01-23T00:32:21.894Z,82.32
2023-01-23T00:34:49.654Z,82.79
2023-01-23T00:37:18.955Z,83.29
2023-01-23T00:39:46.858Z,82.94
2023-01-23T00:42:15.258Z,83.73
2023-01-23T00:44:42.879Z,84.00
2023-01-23T00:47:11.040Z,83.86
2023-01-23T00:49:38.672Z,83.38
2023-01-23T00:52:06.985Z,83.79
2023-01-23T00:54:38.140Z,84.33
2023-01-23T00:57:06.698Z,84.04
2023-01-23T00:59:34.276Z,83.52
2023-01-23T01:02:02.232Z,83.43
2023-01-23T01:04:29.866Z,84.00
2023-01-23T01:06:57.645Z,83.61
2023-01-23T01:09:25.508Z,83.69
2023-01-23T01:11:54.933Z,83.68
2023-01-23T01:14:22.550Z,83.62
2023-01-23T01:16:50.459Z,84.09
2023-01-23T01:19:19.070Z,84.11
2023-01-23T01:21:47.445Z,84.24
2023-01-23T01:24:15.044Z,84.35
2023-01-23T01:26:43.324Z,84.32
2023-01-23T01:29:12.275Z,84.04
2023-01-23T01:31:40.268Z,83.83
2023-01-23T01:34:08.065Z,83.97
2023-01-23T01:36:35.736Z,84.00
2023-01-23T01:39:03.377Z,84.16
2023-01-23T01:41:31.506Z,83.96
2023-01-23T01:44:00.316Z,84.72
2023-01-23T01:46:33.029Z,84.20
2023-01-23T01:49:08.686Z,84.77
2023-01-23T01:51:40.238Z,84.52
2023-01-23T01:54:12.971Z,83.92
2023-01-23T01:56:45.829Z,84.37
2023-01-23T01:59:14.836Z,83.71
2023-01-23T02:01:48.297Z,83.93
2023-01-23T02:04:16.549Z,83.89
2023-01-23T02:06:44.938Z,84.06
2023-01-23T02:09:19.805Z,83.42
2023-01-23T02:11:50.083Z,83.93
2023-01-23T02:14:20.648Z,83.69
2023-01-23T02:16:53.150Z,84.10
2023-01-23T02:19:38.644Z,84.59
2023-01-23T02:22:19.437Z,84.75
2023-01-23T02:24:55.740Z,84.62
2023-01-23T02:27:25.337Z,85.27
2023-01-23T02:29:56.163Z,84.79
2023-01-23T02:32:27.597Z,84.89
2023-01-23T02:34:58.317Z,84.75
2023-01-23T02:37:32.176Z,84.00
2023-01-23T02:40:01.667Z,83.76
2023-01-23T02:42:33.167Z,83.42
2023-01-23T02:45:01.464Z,83.51
2023-01-23T02:47:29.883Z,83.38
2023-01-23T02:49:58.435Z,83.45
2023-01-23T02:52:26.572Z,83.63
2023-01-23T02:54:54.186Z,84.00
2023-01-23T02:57:22.431Z,83.36
2023-01-23T03:00:08.166Z,83.64
2023-01-23T03:02:38.653Z,83.83
2023-01-23T03:05:07.307Z,83.99
2023-01-23T03:07:35.750Z,83.72
2023-01-23T03:10:05.874Z,83.81
2023-01-23T03:12:33.999Z,84.27
2023-01-23T03:15:05.997Z,83.95
2023-01-23T03:17:36.414Z,84.21
2023-01-23T03:20:05.948Z,83.82
2023-01-23T03:22:33.888Z,83.85
2023-01-23T03:25:01.509Z,84.37
2023-01-23T03:27:29.802Z,86.64
2023-01-23T03:30:12.227Z,85.79
2023-01-23T03:32:42.936Z,84.53
2023-01-23T03:35:13.966Z,84.24
2023-01-23T03:37:43.966Z,84.09
2023-01-23T03:40:35.491Z,83.60
2023-01-23T03:43:04.736Z,83.63
2023-01-23T03:45:34.580Z,83.22
2023-01-23T03:48:04.486Z,83.03
2023-01-23T03:50:32.216Z,82.51
2023-01-23T03:52:59.898Z,82.69
2023-01-23T03:55:27.601Z,82.97
2023-01-23T03:57:56.147Z,82.48
2023-01-23T04:00:29.869Z,83.03
2023-01-23T04:03:02.473Z,83.32
2023-01-23T04:05:31.971Z,83.53
2023-01-23T04:08:01.203Z,83.72
2023-01-23T04:10:30.288Z,82.87
2023-01-23T04:13:04.645Z,83.34
2023-01-23T04:15:33.439Z,83.00
2023-01-23T04:18:03.796Z,83.22
2023-01-23T04:20:32.773Z,82.81
2023-01-23T04:23:01.382Z,82.89
2023-01-23T04:25:30.607Z,82.97
2023-01-23T04:27:58.804Z,83.38
2023-01-23T04:30:26.509Z,82.93
2023-01-23T04:32:55.493Z,83.21
2023-01-23T04:35:23.766Z,82.85
2023-01-23T04:37:54.953Z,83.11
2023-01-23T04:40:22.759Z,82.88
2023-01-23T04:42:55.811Z,83.63
2023-01-23T04:45:31.714Z,83.52
2023-01-23T04:48:20.191Z,83.04
2023-01-23T04:50:48.909Z,83.47
2023-01-23T04:53:19.121Z,82.95
2023-01-23T04:55:52.006Z,82.25
2023-01-23T04:58:21.067Z,83.07
2023-01-23T05:00:49.007Z,82.97
2023-01-23T05:03:19.934Z,82.61
2023-01-23T05:05:48.881Z,82.54
2023-01-23T05:08:18.233Z,82.90
2023-01-23T05:10:54.543Z,82.51
2023-01-23T05:13:23.582Z,83.40
2023-01-23T05:15:51.259Z,83.47
2023-01-23T05:18:20.157Z,83.43
2023-01-23T05:20:48.696Z,83.87
2023-01-23T05:23:17.841Z,84.09
2023-01-23T05:25:50.681Z,84.15
2023-01-23T05:28:18.350Z,83.73
2023-01-23T05:30:51.426Z,84.05
2023-01-23T05:33:26.047Z,84.03
2023-01-23T05:35:55.063Z,84.34
2023-01-23T05:38:24.017Z,83.72
2023-01-23T05:40:52.323Z,83.73
2023-01-23T05:43:39.088Z,84.13
2023-01-23T05:46:07.014Z,83.75
2023-01-23T05:48:50.146Z,83.67
2023-01-23T05:51:18.293Z,83.41
2023-01-23T05:53:47.454Z,83.58
2023-01-23T05:56:17.089Z,83.38
2023-01-23T05:59:05.274Z,82.90
2023-01-23T06:01:41.008Z,82.81
2023-01-23T06:04:27.789Z,82.64
2023-01-23T06:07:13.623Z,82.66
2023-01-23T06:09:43.225Z,83.07
2023-01-23T06:12:12.010Z,82.49
2023-01-23T06:14:40.983Z,82.92
2023-01-23T06:17:09.464Z,83.20
2023-01-23T06:19:37.137Z,82.96
2023-01-23T06:22:05.296Z,82.82
2023-01-23T06:24:44.547Z,83.58
2023-01-23T06:27:12.267Z,83.81
2023-01-23T06:29:39.903Z,83.75
2023-01-23T06:32:08.700Z,83.69
2023-01-23T06:34:37.262Z,83.80
2023-01-23T06:37:06.342Z,84.39
2023-01-23T06:39:35.178Z,83.46
2023-01-23T06:42:10.101Z,83.92
2023-01-23T06:44:44.947Z,84.22
2023-01-23T06:47:14.570Z,83.87
2023-01-23T06:49:45.129Z,84.54
2023-01-23T06:52:12.753Z,83.69
2023-01-23T06:54:43.172Z,84.57
2023-01-23T06:57:13.469Z,84.35
2023-01-23T06:59:41.895Z,84.11
2023-01-23T07:02:12.649Z,84.26
2023-01-23T07:04:48.653Z,83.88
2023-01-23T07:07:16.292Z,83.83
2023-01-23T07:09:44.827Z,83.72
2023-01-23T07:12:27.328Z,83.46
2023-01-23T07:14:55.004Z,83.44
2023-01-23T07:17:28.513Z,83.81
2023-01-23T07:19:56.617Z,83.71
2023-01-23T07:22:25.671Z,84.07
2023-01-23T07:24:53.473Z,83.67
2023-01-23T07:27:21.775Z,84.07
2023-01-23T07:29:51.437Z,83.54
2023-01-23T07:32:19.379Z,83.70
2023-01-23T07:34:47.298Z,83.74
2023-01-23T07:37:15.170Z,84.25
2023-01-23T07:39:42.884Z,83.71
2023-01-23T07:42:10.864Z,84.19
2023-01-23T07:44:42.249Z,83.69
2023-01-23T07:47:11.798Z,83.41
2023-01-23T07:49:39.389Z,83.35
2023-01-23T07:52:07.415Z,83.46
2023-01-23T07:54:35.022Z,83.41
2023-01-23T07:57:02.898Z,83.54
2023-01-23T07:59:30.651Z,83.55
2023-01-23T08:01:58.292Z,84.28
2023-01-23T08:04:27.809Z,83.63
2023-01-23T08:06:55.740Z,83.48
2023-01-23T08:09:23.562Z,84.29
2023-01-23T08:11:52.521Z,84.10
2023-01-23T08:14:20.358Z,83.55
2023-01-23T08:16:50.446Z,83.76
2023-01-23T08:19:18.725Z,83.16
2023-01-23T08:21:48.044Z,82.88
2023-01-23T08:24:16.155Z,83.97
2023-01-23T08:26:44.604Z,82.71
2023-01-23T08:29:12.785Z,82.48
2023-01-23T08:31:40.923Z,82.20
2023-01-23T08:34:08.591Z,82.29
2023-01-23T08:36:36.378Z,82.39
2023-01-23T08:39:05.640Z,82.16
2023-01-23T08:41:33.574Z,82.30
2023-01-23T08:44:01.791Z,81.56
2023-01-23T08:46:29.796Z,81.58
2023-01-23T08:48:57.462Z,81.52
2023-01-23T08:51:25.545Z,80.95
2023-01-23T08:53:54.115Z,80.70
2023-01-23T08:56:24.647Z,80.98
2023-01-23T08:58:52.945Z,81.34
2023-01-23T09:01:22.124Z,81.65
2023-01-23T09:03:50.783Z,81.50
2023-01-23T09:06:20.484Z,82.41
2023-01-23T09:08:49.179Z,82.14
2023-01-23T09:11:17.812Z,82.56
2023-01-23T09:13:48.615Z,82.07
2023-01-23T09:16:16.943Z,82.64
2023-01-23T09:18:45.326Z,82.47
2023-01-23T09:21:16.559Z,82.29
2023-01-23T09:23:45.644Z,82.03
2023-01-23T09:26:15.225Z,82.01
2023-01-23T09:28:43.974Z,80.83
2023-01-23T09:31:14.560Z,81.43
2023-01-23T09:33:43.207Z,80.97
2023-01-23T09:36:11.893Z,81.82
2023-01-23T09:38:39.929Z,80.85
2023-01-23T09:41:16.303Z,81.32
2023-01-23T09:43:52.803Z,81.33
2023-01-23T09:46:27.140Z,80.58
2023-01-23T09:49:00.905Z,80.96
2023-01-23T09:51:35.865Z,79.83
2023-01-23T09:54:17.564Z,79.90
2023-01-23T09:56:48.199Z,79.95
2023-01-23T09:59:25.893Z,79.86
2023-01-23T10:01:54.833Z,79.00
2023-01-23T10:04:23.458Z,78.71
2023-01-23T10:07:13.174Z,79.32
2023-01-23T10:09:51.677Z,78.90
2023-01-23T10:12:33.500Z,78.68
2023-01-23T10:15:29.101Z,78.73
2023-01-23T10:18:12.297Z,78.83
2023-01-23T10:20:48.911Z,78.65
2023-01-23T10:23:33.255Z,79.17
2023-01-23T10:26:04.472Z,78.36
2023-01-23T10:28:38.922Z,78.87
2023-01-23T10:31:11.847Z,78.48
2023-01-23T10:33:49.985Z,77.86
2023-01-23T10:36:27.390Z,78.63
2023-01-23T10:39:01.025Z,77.12
2023-01-23T10:41:28.745Z,77.32
2023-01-23T10:43:58.297Z,77.30
2023-01-23T10:46:32.117Z,77.57
2023-01-23T10:49:02.455Z,78.48
2023-01-23T10:51:36.498Z,78.96
2023-01-23T10:54:16.897Z,79.07
2023-01-23T10:56:58.196Z,78.44
2023-01-23T10:59:35.453Z,79.18
2023-01-23T11:02:30.671Z,79.11
2023-01-23T11:05:01.237Z,78.43
2023-01-23T11:07:31.281Z,77.80
2023-01-23T11:10:01.204Z,77.82
2023-01-23T11:12:31.086Z,78.44
2023-01-23T11:15:14.595Z,78.03
2023-01-23T11:17:43.267Z,78.53
2023-01-23T11:20:26.190Z,78.71
2023-01-23T11:23:06.352Z,79.05
2023-01-23T11:25:37.173Z,78.10
2023-01-23T11:28:20.364Z,77.78
2023-01-23T11:30:54.203Z,77.82
2023-01-23T11:33:42.344Z,77.62
2023-01-23T11:36:44.292Z,77.71
2023-01-23T11:39:21.366Z,77.52
2023-01-23T11:41:49.519Z,77.95
2023-01-23T11:44:21.113Z,79.00
2023-01-23T11:47:13.479Z,78.72
2023-01-23T11:50:01.471Z,78.61
2023-01-23T11:52:42.724Z,78.77
2023-01-23T11:55:28.069Z,78.58
2023-01-23T11:58:09.617Z,78.46
2023-01-23T12:00:43.816Z,78.87
2023-01-23T12:03:31.935Z,79.02
2023-01-23T12:09:09.292Z,79.33
2023-01-23T12:11:46.370Z,78.30
2023-01-23T12:14:22.499Z,78.70
2023-01-23T12:17:00.532Z,79.67
2023-01-23T12:19:39.549Z,78.98
2023-01-23T12:22:14.238Z,79.49
2023-01-23T12:25:00.421Z,80.04
2023-01-23T12:27:41.936Z,79.42
2023-01-23T12:30:25.555Z,79.46
2023-01-23T12:33:04.581Z,79.73
2023-01-23T12:35:41.927Z,79.50
2023-01-23T12:38:24.276Z,79.95
2023-01-23T12:41:08.925Z,79.54
2023-01-23T12:43:42.564Z,79.58
2023-01-23T12:46:15.513Z,79.53
2023-01-23T12:48:49.352Z,78.82
2023-01-23T12:51:23.383Z,78.45
2023-01-23T12:53:57.509Z,78.87
2023-01-23T12:56:30.861Z,78.79
2023-01-23T12:59:09.172Z,79.27
2023-01-23T13:01:53.007Z,79.82
2023-01-23T13:04:46.952Z,79.73
2023-01-23T13:07:41.450Z,78.70
2023-01-23T13:11:11.829Z,79.35
2023-01-23T13:13:41.842Z,79.16
2023-01-23T13:16:14.420Z,78.91
2023-01-23T13:19:12.177Z,79.07
2023-01-23T13:21:58.328Z,78.66
2023-01-23T13:24:50.383Z,79.17
2023-01-23T13:27:40.187Z,79.13
2023-01-23T13:30:40.589Z,80.10
2023-01-23T13:33:51.624Z,80.33
2023-01-23T13:36:29.232Z,80.59
2023-01-23T13:39:21.126Z,80.25
2023-01-23T13:41:50.705Z,80.09
2023-01-23T13:44:35.752Z,80.02
2023-01-23T14:21:25.634Z,79.51
2023-01-23T14:23:57.969Z,79.97
2023-01-23T14:26:27.679Z,80.22
2023-01-23T14:28:58.005Z,80.16
2023-01-23T14:31:28.592Z,80.25
2023-01-23T14:34:10.669Z,80.00
2023-01-23T14:36:43.832Z,80.67
2023-01-23T14:39:18.941Z,80.03
2023-01-23T14:41:48.496Z,80.69
2023-01-23T14:44:21.238Z,80.93
2023-01-23T14:46:54.311Z,80.94
2023-01-23T14:49:27.294Z,81.27
2023-01-23T14:51:58.446Z,81.38
2023-01-23T14:54:29.591Z,80.98
2023-01-23T14:57:04.731Z,81.41
2023-01-23T14:59:35.531Z,81.34
2023-01-23T15:02:13.121Z,81.01
2023-01-23T15:05:07.826Z,81.32
2023-01-23T15:07:35.690Z,81.26
2023-01-23T15:10:03.713Z,81.42
2023-01-23T15:12:32.305Z,81.30
2023-01-23T15:15:00.196Z,81.71
2023-01-23T15:17:28.210Z,81.26
2023-01-23T15:19:59.289Z,81.21
2023-01-23T15:22:29.529Z,81.67
2023-01-23T15:24:57.552Z,82.35
2023-01-23T15:27:28.542Z,82.33
2023-01-23T15:30:38.331Z,82.57
2023-01-23T15:33:24.862Z,82.68
2023-01-23T15:36:02.059Z,82.94
2023-01-23T15:38:31.302Z,83.93
2023-01-23T15:40:59.275Z,83.02
2023-01-23T15:43:27.251Z,83.73
2023-01-23T15:45:55.733Z,83.53
2023-01-23T15:48:23.678Z,83.33
2023-01-23T15:50:51.295Z,83.15
2023-01-23T15:53:21.013Z,83.76
2023-01-23T15:55:48.763Z,83.84
2023-01-23T15:58:17.180Z,84.44
2023-01-23T16:00:44.795Z,84.66
2023-01-23T16:03:14.661Z,83.93
2023-01-23T16:05:42.598Z,84.46
2023-01-23T16:08:20.150Z,84.64
2023-01-23T16:10:50.078Z,84.17
2023-01-23T16:13:17.875Z,84.69
2023-01-23T16:15:45.485Z,84.37
2023-01-23T16:18:13.770Z,84.75
2023-01-23T16:20:45.053Z,85.02
2023-01-23T16:23:17.591Z,84.79
2023-01-23T16:25:46.506Z,85.57
2023-01-23T16:28:18.039Z,85.22
2023-01-23T16:30:47.071Z,84.94
2023-01-23T16:33:15.297Z,85.06
2023-01-23T16:35:43.645Z,85.29
2023-01-23T16:38:19.714Z,85.35
2023-01-23T16:40:47.379Z,85.28
2023-01-23T16:43:17.117Z,84.68
2023-01-23T16:45:44.815Z,84.69
2023-01-23T16:48:21.593Z,85.40
2023-01-23T16:50:57.578Z,85.22
2023-01-23T16:53:28.664Z,85.66
2023-01-23T16:55:58.831Z,85.24
2023-01-23T16:58:31.153Z,85.52
2023-01-23T17:01:03.059Z,84.66
2023-01-23T17:03:34.912Z,85.05
2023-01-23T17:06:02.621Z,85.69
2023-01-23T17:08:30.418Z,85.18
2023-01-23T17:11:01.396Z,85.50
2023-01-23T17:13:33.725Z,85.43
2023-01-23T17:16:03.319Z,85.29
2023-01-23T17:18:33.682Z,85.62
2023-01-23T17:21:01.939Z,85.25
2023-01-23T17:23:29.576Z,85.24
2023-01-23T17:26:01.591Z,84.66
2023-01-23T17:28:30.851Z,85.34
2023-01-23T17:31:01.277Z,85.78
2023-01-23T17:33:32.755Z,84.74
2023-01-23T17:36:03.265Z,85.11
2023-01-23T17:38:32.460Z,84.13
2023-01-23T17:41:00.082Z,85.34
2023-01-23T17:43:29.013Z,85.15
2023-01-23T17:45:58.316Z,84.78
2023-01-23T17:48:28.569Z,85.30
2023-01-23T17:50:58.096Z,84.63
2023-01-23T17:53:27.699Z,85.25
2023-01-23T17:55:55.470Z,85.28
2023-01-23T17:58:23.624Z,85.44
2023-01-23T18:00:53.927Z,85.24
2023-01-23T18:03:24.668Z,85.77
2023-01-23T18:05:52.684Z,85.02
2023-01-23T18:08:22.588Z,85.02
2023-01-23T18:10:53.534Z,85.10
2023-01-23T18:13:27.652Z,84.86
2023-01-23T18:16:04.452Z,84.89
2023-01-23T18:18:35.431Z,84.47
2023-01-23T18:21:06.261Z,84.84
2023-01-23T18:23:37.118Z,85.22
2023-01-23T18:26:20.258Z,85.17
2023-01-23T18:28:53.903Z,84.03
2023-01-23T18:31:33.104Z,84.97
2023-01-23T18:34:16.535Z,84.47
2023-01-23T18:36:53.490Z,85.39
2023-01-23T18:39:52.608Z,85.64
2023-01-23T18:42:24.365Z,85.90
2023-01-23T18:44:57.747Z,85.58
2023-01-23T18:47:26.349Z,85.97
2023-01-23T18:49:56.245Z,86.40
2023-01-23T18:52:35.113Z,86.25
2023-01-23T18:55:08.707Z,86.79
2023-01-23T18:58:02.953Z,86.71
2023-01-23T19:00:37.872Z,86.14
2023-01-23T19:03:13.603Z,87.72
2023-01-23T19:05:43.601Z,87.82
2023-01-23T19:08:27.926Z,87.82
2023-01-23T19:10:58.491Z,88.83
2023-01-23T19:13:30.756Z,88.40
2023-01-23T19:16:08.179Z,87.82
2023-01-23T19:19:14.537Z,87.45
2023-01-23T19:21:47.385Z,88.46
2023-01-23T19:24:18.951Z,88.50
2023-01-23T19:26:47.544Z,88.71
2023-01-23T19:29:23.402Z,89.51
2023-01-23T19:32:05.188Z,89.83
2023-01-23T19:34:33.473Z,89.60
2023-01-23T19:37:02.975Z,90.02
2023-01-23T19:39:31.004Z,90.08
2023-01-23T19:42:00.149Z,89.56
2023-01-23T19:44:29.871Z,90.21
2023-01-23T19:46:57.547Z,90.26
2023-01-23T19:49:25.681Z,89.99
2023-01-23T19:51:53.382Z,90.45
2023-01-23T19:54:24.156Z,90.42
2023-01-23T19:56:53.493Z,90.40
2023-01-23T19:59:21.501Z,90.64
2023-01-23T20:01:52.613Z,90.65
2023-01-23T20:04:23.291Z,89.77
2023-01-23T20:06:51.845Z,90.60
2023-01-23T20:09:20.070Z,89.82
2023-01-23T20:11:49.931Z,89.89
2023-01-23T20:14:17.998Z,90.19
2023-01-23T20:16:45.653Z,90.28
2023-01-23T20:19:14.500Z,90.11
2023-01-23T20:21:42.802Z,90.46
2023-01-23T20:24:10.726Z,89.83
2023-01-23T20:26:40.164Z,89.73
2023-01-23T20:29:10.407Z,90.14
2023-01-23T20:31:38.764Z,89.26
2023-01-23T20:34:07.163Z,89.71
2023-01-23T20:36:35.016Z,89.87
2023-01-23T20:39:03.590Z,89.18
2023-01-23T20:41:31.262Z,89.75
2023-01-23T20:43:58.873Z,89.75
2023-01-23T20:46:28.006Z,90.29
2023-01-23T20:48:56.792Z,90.32
2023-01-23T20:51:24.409Z,89.87
2023-01-23T20:53:51.143Z,89.34
2023-01-23T20:56:21.395Z,89.82
2023-01-23T20:59:08.451Z,90.48
2023-01-23T21:01:53.148Z,89.56
2023-01-23T21:04:21.518Z,89.55
2023-01-23T21:06:49.574Z,89.02
2023-01-23T21:09:18.018Z,89.39
2023-01-23T21:11:46.440Z,89.22
2023-01-23T21:14:14.511Z,89.85
2023-01-23T21:16:43.480Z,89.90
2023-01-23T21:19:11.270Z,90.18
2023-01-23T21:21:39.025Z,89.87
2023-01-23T21:24:07.746Z,89.73
2023-01-23T21:26:35.850Z,90.08
2023-01-23T21:29:03.613Z,89.86
2023-01-23T21:31:34.029Z,90.08
2023-01-23T21:34:06.515Z,89.58
2023-01-23T21:36:34.201Z,89.33
2023-01-23T21:39:02.906Z,90.04
2023-01-23T21:41:30.538Z,90.16
2023-01-23T21:43:58.550Z,90.42
2023-01-23T21:46:27.504Z,90.33
2023-01-23T21:48:55.159Z,90.17
2023-01-23T21:51:27.598Z,90.70
2023-01-23T21:53:55.708Z,90.35
2023-01-23T21:56:24.661Z,90.53
2023-01-23T21:58:52.442Z,92.81
2023-01-23T22:01:33.767Z,94.12
2023-01-23T22:04:03.335Z,94.42
2023-01-23T22:06:33.445Z,94.89
2023-01-23T22:09:01.668Z,94.66
2023-01-23T22:11:29.748Z,94.38
2023-01-23T22:13:57.901Z,94.50
2023-01-23T22:16:45.290Z,94.78
2023-01-23T22:19:15.273Z,94.38
2023-01-23T22:21:46.252Z,94.53
2023-01-23T22:24:14.081Z,95.07
2023-01-23T22:26:41.786Z,94.24
2023-01-23T22:29:09.533Z,94.51
2023-01-23T22:31:37.264Z,95.05
2023-01-23T22:34:05.019Z,94.71
2023-01-23T22:36:32.701Z,94.07
2023-01-23T22:39:02.030Z,93.81
2023-01-23T22:41:29.623Z,93.62
2023-01-23T22:43:59.261Z,94.26
2023-01-23T22:46:27.740Z,94.25
2023-01-23T22:48:55.424Z,94.91
2023-01-23T22:51:25.424Z,94.67
2023-01-23T22:53:53.796Z,95.00
2023-01-23T22:56:23.156Z,94.70
2023-01-23T22:58:52.287Z,94.57
2023-01-23T23:01:22.933Z,94.71
2023-01-23T23:03:51.019Z,94.06
2023-01-23T23:06:18.905Z,94.67
2023-01-23T23:08:48.256Z,93.72
2023-01-23T23:11:17.913Z,94.66
2023-01-23T23:13:47.162Z,94.53
2023-01-23T23:16:17.763Z,94.56
2023-01-23T23:18:46.541Z,94.18
2023-01-23T23:21:16.401Z,94.64
2023-01-23T23:23:44.994Z,94.25
2023-01-23T23:26:13.716Z,94.16
2023-01-23T23:28:41.822Z,93.80
2023-01-23T23:31:11.002Z,93.74
2023-01-23T23:33:39.247Z,94.32
2023-01-23T23:36:07.706Z,94.47
2023-01-23T23:38:35.755Z,94.24
2023-01-23T23:41:06.309Z,93.67
2023-01-23T23:43:34.331Z,93.85
2023-01-23T23:46:05.179Z,93.33
2023-01-23T23:48:35.834Z,94.19
2023-01-23T23:51:05.674Z,93.75
2023-01-23T23:53:33.867Z,94.69
2023-01-23T23:56:02.103Z,94.60
2023-01-23T23:58:29.867Z,94.48
